Time;durP1;ratioP1;P1;durP2;ratioP2;P2;SDS_P1;SDS_P2;PMS_P1;PMS_P2;Temp;Humidity;BMP_temperature;BMP_pressure;BME280_temperature;BME280_humidity;BME280_pressure;Samples;Min_cycle;Max_cycle;Signal;HPM_P1;HPM_P2
2021/05/03 00:01:22;;;;;;;4.20;2.95;;;8.70;99.90;;;;;;5082838;27;20222;-80
2021/05/03 00:03:48;;;;;;;3.67;3.30;;;8.70;99.90;;;;;;5103906;27;20243;-79
2021/05/03 00:06:15;;;;;;;3.03;2.80;;;8.70;99.90;;;;;;5048809;27;20502;-79
2021/05/03 00:08:41;;;;;;;4.47;3.43;;;8.70;99.90;;;;;;5111548;27;20187;-79
2021/05/03 00:11:07;;;;;;;3.22;2.92;;;8.70;99.90;;;;;;5074884;27;20478;-79
2021/05/03 00:13:33;;;;;;;3.25;2.90;;;8.80;99.90;;;;;;5073774;27;20246;-79
2021/05/03 00:16:00;;;;;;;3.73;3.23;;;8.70;99.90;;;;;;5112080;27;20218;-79
2021/05/03 00:18:26;;;;;;;5.75;3.50;;;8.70;99.90;;;;;;5049405;27;20541;-79
2021/05/03 00:20:52;;;;;;;3.85;3.47;;;8.70;99.90;;;;;;5103141;27;20229;-79
2021/05/03 00:23:19;;;;;;;5.65;3.58;;;8.70;99.90;;;;;;5082855;27;20218;-80
2021/05/03 00:25:45;;;;;;;4.43;3.55;;;8.70;99.90;;;;;;5065057;27;20218;-79
2021/05/03 00:28:11;;;;;;;3.40;3.20;;;8.70;99.90;;;;;;5117605;27;20183;-80
2021/05/03 00:30:37;;;;;;;4.05;3.40;;;8.60;99.90;;;;;;5052694;27;21011;-80
2021/05/03 00:33:05;;;;;;;3.50;3.20;;;8.60;99.90;;;;;;5095052;27;20238;-80
2021/05/03 00:35:32;;;;;;;4.03;3.43;;;8.60;99.90;;;;;;5091536;27;20179;-80
2021/05/03 00:37:58;;;;;;;6.10;3.50;;;8.60;99.90;;;;;;5055837;27;20449;-79
2021/05/03 00:40:24;;;;;;;5.25;3.55;;;8.60;99.90;;;;;;5068334;27;21021;-79
2021/05/03 00:42:50;;;;;;;3.58;3.28;;;8.50;99.90;;;;;;5061923;27;20218;-79
2021/05/03 00:45:20;;;;;;;5.07;4.20;;;8.60;99.90;;;;;;5085533;27;20191;-79
2021/05/03 00:47:46;;;;;;;4.83;3.47;;;8.60;99.90;;;;;;5102336;27;20463;-79
2021/05/03 00:50:14;;;;;;;3.95;3.65;;;8.60;99.90;;;;;;5048900;27;20871;-79
2021/05/03 00:52:42;;;;;;;3.88;3.30;;;8.60;99.90;;;;;;5111298;27;20240;-79
2021/05/03 00:55:09;;;;;;;3.43;3.00;;;8.60;99.90;;;;;;5074524;27;20183;-79
2021/05/03 00:57:36;;;;;;;4.30;2.83;;;8.60;99.90;;;;;;5071457;27;20477;-80
2021/05/03 01:00:03;;;;;;;2.70;2.50;;;8.60;99.90;;;;;;5113310;27;20472;-79
2021/05/03 01:02:29;;;;;;;3.27;2.97;;;8.60;99.90;;;;;;5048601;27;20301;-79
2021/05/03 01:04:55;;;;;;;2.90;2.60;;;8.60;99.90;;;;;;5100550;27;20540;-79
2021/05/03 01:07:23;;;;;;;3.63;2.78;;;8.60;99.90;;;;;;5083860;27;20184;-79
2021/05/03 01:09:50;;;;;;;2.92;2.72;;;8.60;99.90;;;;;;5061389;27;20191;-79
2021/05/03 01:12:16;;;;;;;3.13;2.80;;;8.60;99.90;;;;;;5116436;27;20274;-79
2021/05/03 01:14:42;;;;;;;3.33;2.40;;;8.50;99.90;;;;;;5055874;27;20216;-79
2021/05/03 01:17:08;;;;;;;2.90;2.60;;;8.50;99.90;;;;;;5090803;27;20187;-79
2021/05/03 01:19:34;;;;;;;2.83;2.50;;;8.50;99.90;;;;;;5092700;27;20236;-79
2021/05/03 01:22:01;;;;;;;4.72;2.33;;;8.50;99.90;;;;;;5114491;27;20187;-79
2021/05/03 01:24:27;;;;;;;2.63;2.40;;;8.40;99.90;;;;;;5116582;27;20289;-79
2021/05/03 01:26:53;;;;;;;6.85;3.15;;;8.40;99.90;;;;;;5063293;27;20211;-79
2021/05/03 01:29:19;;;;;;;3.38;2.38;;;8.40;99.90;;;;;;5083082;27;20218;-79
2021/05/03 01:31:50;;;;;;;2.83;2.45;;;8.40;99.90;;;;;;5100474;27;20273;-79
2021/05/03 01:34:16;;;;;;;3.42;2.97;;;8.40;99.90;;;;;;5048043;27;20619;-79
2021/05/03 01:36:44;;;;;;;6.97;2.85;;;8.40;99.90;;;;;;5108866;27;20225;-79
2021/05/03 01:39:13;;;;;;;3.00;2.80;;;8.40;99.90;;;;;;5075364;27;20222;-79
2021/05/03 01:41:39;;;;;;;3.63;3.33;;;8.30;99.90;;;;;;5067810;27;20450;-79
2021/05/03 01:44:08;;;;;;;3.28;3.05;;;8.30;99.90;;;;;;5115237;27;20230;-79
2021/05/03 01:46:35;;;;;;;3.40;3.00;;;8.20;99.90;;;;;;5049241;27;20187;-79
2021/05/03 01:49:03;;;;;;;3.30;3.00;;;8.20;99.90;;;;;;5095515;27;20572;-79
2021/05/03 01:51:30;;;;;;;9.75;3.15;;;8.20;99.90;;;;;;5088593;27;20541;-79
2021/05/03 01:53:56;;;;;;;3.50;3.00;;;8.20;99.90;;;;;;5056017;27;20692;-79
2021/05/03 01:56:25;;;;;;;5.93;3.65;;;8.20;99.90;;;;;;5097068;27;20270;-79
2021/05/03 01:58:52;;;;;;;5.57;3.30;;;8.10;99.90;;;;;;5057012;27;20301;-79
2021/05/03 02:01:18;;;;;;;5.15;3.30;;;8.00;99.90;;;;;;5087900;27;20244;-79
2021/05/03 02:03:44;;;;;;;3.53;3.10;;;8.00;99.90;;;;;;5094273;27;20693;-79
2021/05/03 02:06:12;;;;;;;5.78;3.33;;;8.00;99.90;;;;;;5050437;27;20274;-79
2021/05/03 02:08:38;;;;;;;5.93;3.30;;;7.90;99.90;;;;;;5115873;27;20224;-79
2021/05/03 02:11:04;;;;;;;5.70;3.42;;;7.90;99.90;;;;;;5066344;27;20299;-79
2021/05/03 02:13:33;;;;;;;3.63;3.33;;;7.90;99.90;;;;;;5078598;27;20301;-79
2021/05/03 02:15:59;;;;;;;6.15;4.18;;;7.90;99.90;;;;;;5099556;27;20224;-79
2021/05/03 02:18:25;;;;;;;5.43;4.20;;;7.80;99.90;;;;;;5047275;27;20197;-80
2021/05/03 02:20:51;;;;;;;4.15;3.78;;;7.80;99.90;;;;;;5106383;27;20226;-80
2021/05/03 02:23:17;;;;;;;5.88;3.75;;;7.80;99.90;;;;;;5075705;28;20219;-80
2021/05/03 02:25:43;;;;;;;5.07;3.95;;;7.80;99.90;;;;;;5069157;28;20251;-80
2021/05/03 02:28:10;;;;;;;5.25;3.50;;;7.90;99.90;;;;;;5112051;27;20234;-80
2021/05/03 02:30:37;;;;;;;3.30;3.10;;;7.80;99.90;;;;;;5047617;27;20211;-80
2021/05/03 02:33:04;;;;;;;3.58;3.28;;;7.80;99.90;;;;;;5097693;28;20301;-80
2021/05/03 02:35:33;;;;;;;5.32;4.13;;;7.80;99.90;;;;;;5084249;28;20191;-80
2021/05/03 02:38:00;;;;;;;3.83;3.50;;;7.70;99.90;;;;;;5057996;28;20642;-79
2021/05/03 02:40:27;;;;;;;6.85;3.60;;;7.60;99.90;;;;;;5115530;28;20547;-79
2021/05/03 02:42:55;;;;;;;3.92;3.63;;;7.50;99.90;;;;;;5057592;28;20215;-78
2021/05/03 02:45:21;;;;;;;5.82;3.38;;;7.40;99.90;;;;;;5085193;28;20225;-78
2021/05/03 02:47:49;;;;;;;5.72;3.25;;;7.30;99.90;;;;;;5096679;28;20270;-78
2021/05/03 02:50:17;;;;;;;4.28;3.88;;;7.20;99.90;;;;;;5046962;28;20191;-78
2021/05/03 02:52:44;;;;;;;4.93;3.67;;;7.10;99.90;;;;;;5112318;28;20245;-78
2021/05/03 02:55:11;;;;;;;4.60;3.97;;;7.00;99.90;;;;;;5069667;28;20294;-78
2021/05/03 02:57:37;;;;;;;6.15;4.00;;;6.90;99.90;;;;;;5101270;28;20616;-79
2021/05/03 03:00:05;;;;;;;6.22;3.60;;;6.90;99.90;;;;;;5054502;28;20218;-78
2021/05/03 03:02:31;;;;;;;7.65;4.65;;;6.80;99.90;;;;;;5115004;28;20242;-79
2021/05/03 03:04:58;;;;;;;6.38;3.47;;;6.70;99.90;;;;;;5060426;28;20221;-78
2021/05/03 03:07:24;;;;;;;4.60;3.75;;;6.60;99.90;;;;;;5082471;28;20218;-78
2021/05/03 03:09:50;;;;;;;4.32;3.80;;;6.60;99.90;;;;;;5096137;28;20297;-78
2021/05/03 03:12:16;;;;;;;4.00;3.10;;;6.60;99.90;;;;;;5118049;28;20214;-78
2021/05/03 03:14:42;;;;;;;4.15;3.85;;;6.60;99.90;;;;;;5049458;28;20264;-78
2021/05/03 03:17:09;;;;;;;3.35;3.10;;;6.60;99.90;;;;;;5093545;28;20250;-78
2021/05/03 03:19:37;;;;;;;4.05;3.75;;;6.60;99.90;;;;;;5087238;28;20180;-79
2021/05/03 03:22:04;;;;;;;6.55;4.03;;;6.60;99.90;;;;;;5054627;28;20215;-79
2021/05/03 03:24:33;;;;;;;3.90;3.60;;;6.50;99.90;;;;;;5084060;28;20308;-78
2021/05/03 03:26:59;;;;;;;4.32;3.45;;;6.50;99.90;;;;;;5107934;28;20223;-79
2021/05/03 03:29:25;;;;;;;5.88;3.80;;;6.50;99.90;;;;;;5080883;27;20203;-79
2021/05/03 03:31:51;;;;;;;4.78;3.50;;;6.40;99.90;;;;;;5105796;28;20315;-79
2021/05/03 03:34:17;;;;;;;4.03;3.53;;;6.40;99.90;;;;;;5046612;28;20699;-80
2021/05/03 03:36:43;;;;;;;5.40;3.70;;;6.40;99.90;;;;;;5111612;28;20276;-78
2021/05/03 03:39:10;;;;;;;3.65;3.03;;;6.40;99.90;;;;;;5068830;27;20205;-79
2021/05/03 03:41:37;;;;;;;4.38;4.00;;;6.40;99.90;;;;;;5076186;27;20214;-79
2021/05/03 03:44:03;;;;;;;3.67;3.35;;;6.50;99.90;;;;;;5110459;27;20323;-78
2021/05/03 03:46:31;;;;;;;3.25;2.95;;;6.50;99.90;;;;;;5049977;27;20191;-79
2021/05/03 03:48:57;;;;;;;5.47;3.97;;;6.60;99.90;;;;;;5105263;27;20523;-78
2021/05/03 03:51:24;;;;;;;4.13;3.70;;;6.70;99.90;;;;;;5062933;27;20740;-81
2021/05/03 03:53:50;;;;;;;3.47;3.17;;;6.80;99.90;;;;;;5040761;27;20238;-81
2021/05/03 03:56:19;;;;;;;6.97;3.35;;;6.80;99.90;;;;;;5043559;27;20657;-79
2021/05/03 03:58:45;;;;;;;3.78;3.08;;;6.80;99.90;;;;;;5085806;27;20179;-79
2021/05/03 04:01:12;;;;;;;4.15;3.25;;;6.90;99.90;;;;;;5094506;27;20198;-79
2021/05/03 04:03:46;;;;;;;3.05;2.70;;;6.80;99.90;;;;;;5092125;27;20261;-79
2021/05/03 04:06:19;;;;;;;7.95;4.00;;;6.80;99.90;;;;;;5051089;27;20191;-79
2021/05/03 04:08:50;;;;;;;4.40;3.53;;;6.90;99.90;;;;;;5021006;27;20264;-79
2021/05/03 04:11:27;;;;;;;3.65;2.97;;;6.90;99.90;;;;;;5034664;27;20653;-79
2021/05/03 04:22:33;;;;;;;4.20;3.03;;;6.90;99.90;;;;;;5042820;27;20672;-80
2021/05/03 04:25:07;;;;;;;4.60;3.40;;;6.90;99.90;;;;;;5047626;27;20538;-80
2021/05/03 04:27:36;;;;;;;6.95;3.40;;;7.00;99.90;;;;;;5110431;27;20186;-80
2021/05/03 04:30:03;;;;;;;5.43;4.03;;;7.00;99.90;;;;;;5057546;27;20225;-80
2021/05/03 04:32:29;;;;;;;3.85;2.88;;;7.10;99.90;;;;;;5117566;27;20198;-80
2021/05/03 04:34:55;;;;;;;9.03;2.90;;;7.10;99.90;;;;;;5061009;27;20238;-80
2021/05/03 04:37:21;;;;;;;5.57;3.10;;;7.20;99.90;;;;;;5087213;27;20481;-80
2021/05/03 04:39:47;;;;;;;6.20;3.17;;;7.30;99.90;;;;;;5094010;27;20700;-79
2021/05/03 04:42:13;;;;;;;3.72;3.10;;;7.40;99.90;;;;;;5048761;27;20441;-79
2021/05/03 04:44:40;;;;;;;4.05;3.00;;;7.50;99.90;;;;;;5032046;27;20218;-79
2021/05/03 04:47:06;;;;;;;5.38;3.33;;;7.60;99.90;;;;;;5088668;27;20278;-78
2021/05/03 04:49:32;;;;;;;4.05;3.65;;;7.60;99.90;;;;;;5079246;27;20222;-79
2021/05/03 04:51:58;;;;;;;3.50;3.20;;;7.70;99.90;;;;;;5105208;27;20850;-79
2021/05/03 04:54:23;;;;;;;5.20;3.45;;;7.90;99.90;;;;;;5048813;27;20516;-79
2021/05/03 04:56:50;;;;;;;4.65;3.53;;;7.90;99.90;;;;;;5109365;27;20178;-79
2021/05/03 04:59:16;;;;;;;5.35;3.60;;;8.00;99.90;;;;;;5075772;27;20242;-78
2021/05/03 05:01:42;;;;;;;3.30;3.00;;;8.00;99.90;;;;;;5095492;27;20234;-79
2021/05/03 05:04:08;;;;;;;5.55;3.55;;;8.10;99.90;;;;;;5052817;27;20286;-78
2021/05/03 05:06:34;;;;;;;3.83;3.15;;;8.10;99.90;;;;;;5094656;27;20221;-78
2021/05/03 05:09:04;;;;;;;5.85;3.20;;;8.10;99.90;;;;;;5101413;27;20187;-79
2021/05/03 05:11:31;;;;;;;3.50;3.30;;;8.20;99.90;;;;;;5085351;27;20179;-80
2021/05/03 05:13:57;;;;;;;3.25;2.60;;;8.20;99.90;;;;;;5060914;27;20301;-79
2021/05/03 05:16:23;;;;;;;4.00;3.42;;;8.20;99.90;;;;;;5116890;27;20268;-79
2021/05/03 05:18:50;;;;;;;3.00;2.80;;;8.30;99.90;;;;;;5056298;27;20207;-79
2021/05/03 05:21:16;;;;;;;4.82;2.65;;;8.30;99.90;;;;;;5089990;27;20218;-78
2021/05/03 05:23:42;;;;;;;8.52;5.90;;;8.40;99.90;;;;;;5094154;27;20627;-78
2021/05/03 05:26:10;;;;;;;4.90;3.17;;;8.50;99.90;;;;;;5051826;27;20658;-79
2021/05/03 05:28:36;;;;;;;3.35;2.80;;;8.60;99.90;;;;;;5124712;27;20183;-78
2021/05/03 05:31:02;;;;;;;3.33;2.95;;;8.80;99.90;;;;;;5099934;27;20207;-78
2021/05/03 05:33:28;;;;;;;4.65;3.50;;;8.90;99.90;;;;;;5083664;27;20299;-78
2021/05/03 05:35:55;;;;;;;3.33;2.80;;;9.00;99.90;;;;;;5062050;27;20214;-78
2021/05/03 05:38:22;;;;;;;3.20;3.00;;;9.10;99.90;;;;;;5116197;27;20266;-78
2021/05/03 05:40:48;;;;;;;4.50;2.50;;;9.20;99.90;;;;;;5054425;27;20214;-78
2021/05/03 05:43:14;;;;;;;4.67;3.17;;;9.20;99.90;;;;;;5091356;27;20189;-79
2021/05/03 05:45:40;;;;;;;4.30;3.03;;;9.40;99.90;;;;;;5092147;27;20477;-78
2021/05/03 05:48:07;;;;;;;4.13;2.83;;;9.50;99.90;;;;;;5053533;27;20477;-78
2021/05/03 05:50:34;;;;;;;2.77;2.53;;;9.60;99.90;;;;;;5122269;27;20817;-78
2021/05/03 05:53:01;;;;;;;2.60;2.40;;;9.70;99.90;;;;;;5100638;27;20556;-79
2021/05/03 05:55:27;;;;;;;5.33;3.17;;;9.70;99.90;;;;;;5082433;27;20536;-78
2021/05/03 05:57:53;;;;;;;3.27;3.07;;;9.70;99.90;;;;;;5062649;27;20472;-77
2021/05/03 06:00:20;;;;;;;5.00;3.40;;;9.80;99.90;;;;;;5116141;27;20943;-77
2021/05/03 06:02:46;;;;;;;4.43;2.60;;;9.80;99.90;;;;;;5051501;27;20504;-77
2021/05/03 06:05:14;;;;;;;4.03;3.10;;;9.90;99.90;;;;;;5092246;27;20453;-77
2021/05/03 06:07:40;;;;;;;3.20;2.90;;;9.90;99.90;;;;;;5091326;27;20449;-76
2021/05/03 06:10:08;;;;;;;4.23;2.80;;;9.90;99.90;;;;;;5083108;27;20938;-77
2021/05/03 06:12:34;;;;;;;3.93;3.13;;;9.80;99.90;;;;;;5058007;27;20537;-78
2021/05/03 06:15:00;;;;;;;5.50;3.70;;;9.70;99.90;;;;;;5107464;27;20526;-77
2021/05/03 06:17:26;;;;;;;8.70;3.10;;;9.70;99.90;;;;;;5080584;27;20477;-77
2021/05/03 06:19:52;;;;;;;4.13;3.70;;;9.50;99.90;;;;;;5091916;27;20473;-77
2021/05/03 06:22:18;;;;;;;3.83;3.07;;;9.40;99.90;;;;;;5115235;27;21032;-77
2021/05/03 06:24:44;;;;;;;8.10;3.03;;;9.50;99.90;;;;;;5051362;28;20456;-77
2021/05/03 06:27:11;;;;;;;4.47;2.87;;;9.80;99.90;;;;;;5108440;28;20524;-77
2021/05/03 06:29:38;;;;;;;5.13;3.10;;;10.30;99.90;;;;;;5061865;28;20454;-77
2021/05/03 06:32:05;;;;;;;2.80;2.60;;;10.50;99.90;;;;;;5107634;28;20450;-77
2021/05/03 06:34:31;;;;;;;2.60;2.40;;;10.90;99.90;;;;;;5046419;28;20855;-77
2021/05/03 06:36:58;;;;;;;2.43;2.23;;;10.90;99.90;;;;;;5100023;28;20473;-77
2021/05/03 06:39:24;;;;;;;2.67;2.37;;;11.10;99.90;;;;;;5079446;28;20876;-77
2021/05/03 06:41:50;;;;;;;3.30;2.33;;;11.50;99.90;;;;;;5128728;28;20472;-79
2021/05/03 06:44:18;;;;;;;2.50;2.30;;;11.60;99.90;;;;;;5047112;28;20924;-79
2021/05/03 06:46:44;;;;;;;5.17;2.50;;;11.60;99.90;;;;;;5111366;28;20481;-77
2021/05/03 06:49:11;;;;;;;3.83;2.23;;;11.70;99.90;;;;;;5069338;28;20449;-77
2021/05/03 06:51:37;;;;;;;3.80;2.27;;;11.80;99.90;;;;;;5124955;28;20898;-77
2021/05/03 06:54:04;;;;;;;3.20;2.03;;;11.90;99.90;;;;;;5054668;28;20568;-78
2021/05/03 06:56:30;;;;;;;3.53;2.07;;;12.30;99.90;;;;;;5114937;28;20974;-78
2021/05/03 06:58:56;;;;;;;2.17;1.97;;;12.70;99.90;;;;;;5059356;28;20955;-78
2021/05/03 07:01:23;;;;;;;2.53;2.13;;;12.70;99.90;;;;;;5083299;28;20540;-78
2021/05/03 07:03:49;;;;;;;4.90;2.27;;;12.70;99.90;;;;;;5071515;28;20548;-78
2021/05/03 07:06:15;;;;;;;2.50;2.27;;;12.70;99.90;;;;;;5111871;28;20598;-78
2021/05/03 07:08:42;;;;;;;3.27;1.93;;;12.60;99.90;;;;;;5046247;28;20579;-78
2021/05/03 07:11:12;;;;;;;2.43;1.50;;;12.40;99.90;;;;;;5089364;28;20460;-79
2021/05/03 07:13:38;;;;;;;4.43;2.13;;;12.30;99.90;;;;;;5050403;28;20481;-79
2021/05/03 07:16:05;;;;;;;5.40;2.37;;;12.30;99.90;;;;;;5041692;27;20533;-79
2021/05/03 07:18:32;;;;;;;5.63;1.70;;;12.30;99.90;;;;;;5054036;27;20627;-79
2021/05/03 07:20:58;;;;;;;1.93;1.70;;;12.70;99.90;;;;;;5060800;27;20535;-78
2021/05/03 07:23:24;;;;;;;2.47;1.90;;;13.00;99.90;;;;;;5053716;27;20476;-78
2021/05/03 07:25:51;;;;;;;2.07;1.87;;;13.30;99.90;;;;;;5090392;27;20470;-78
2021/05/03 07:28:17;;;;;;;5.33;2.37;;;13.40;99.90;;;;;;5114496;27;20838;-79
2021/05/03 07:30:43;;;;;;;1.80;1.70;;;13.60;99.90;;;;;;5100906;27;20445;-79
2021/05/03 07:33:09;;;;;;;2.93;1.57;;;13.60;99.90;;;;;;5085591;27;20486;-79
2021/05/03 07:35:36;;;;;;;2.50;1.80;;;13.70;99.90;;;;;;5060458;27;20449;-79
2021/05/03 07:38:02;;;;;;;4.30;1.60;;;13.70;99.90;;;;;;5044686;27;20540;-80
2021/05/03 07:40:28;;;;;;;2.10;1.57;;;13.60;99.90;;;;;;5059204;27;20613;-78
2021/05/03 07:42:54;;;;;;;7.47;5.77;;;13.40;99.90;;;;;;5058027;27;20811;-78
2021/05/03 07:45:20;;;;;;;1.90;1.80;;;13.20;99.90;;;;;;5048458;27;20959;-78
2021/05/03 07:47:46;;;;;;;2.57;1.50;;;13.00;99.90;;;;;;5050697;27;20540;-79
2021/05/03 07:50:13;;;;;;;1.57;1.43;;;12.90;99.90;;;;;;5050933;27;20877;-80
2021/05/03 07:52:40;;;;;;;1.83;1.50;;;12.90;99.90;;;;;;5095361;27;20540;-81
2021/05/03 07:55:08;;;;;;;2.97;2.20;;;12.90;99.90;;;;;;5054333;27;20572;-80
2021/05/03 07:57:34;;;;;;;2.60;1.53;;;12.90;99.90;;;;;;5050827;27;20489;-80
2021/05/03 08:00:00;;;;;;;1.93;1.77;;;13.10;99.90;;;;;;5050556;27;20488;-80
2021/05/03 08:02:26;;;;;;;5.03;1.83;;;13.30;99.90;;;;;;5059173;27;20567;-80
2021/05/03 08:04:53;;;;;;;3.10;1.87;;;13.30;99.90;;;;;;5059294;27;20912;-80
2021/05/03 08:07:19;;;;;;;2.43;1.60;;;13.50;99.90;;;;;;5050618;27;20450;-80
2021/05/03 08:09:46;;;;;;;4.80;2.00;;;13.60;99.90;;;;;;5089778;27;20532;-81
2021/05/03 08:12:12;;;;;;;1.80;1.40;;;13.70;99.90;;;;;;5115111;27;20448;-81
2021/05/03 08:14:38;;;;;;;2.80;1.80;;;13.90;99.90;;;;;;5083866;27;21053;-81
2021/05/03 08:17:06;;;;;;;1.93;1.83;;;14.20;99.90;;;;;;5056266;27;20916;-81
2021/05/03 08:19:34;;;;;;;3.73;1.90;;;14.30;99.90;;;;;;5035202;27;20446;-81
2021/05/03 08:22:02;;;;;;;3.83;1.80;;;14.30;99.90;;;;;;5041999;27;20445;-82
2021/05/03 08:24:30;;;;;;;4.47;2.10;;;14.30;99.90;;;;;;5037280;27;20570;-83
2021/05/03 08:26:59;;;;;;;2.80;1.40;;;14.20;99.90;;;;;;5037426;27;20456;-84
2021/05/03 08:29:26;;;;;;;2.27;1.53;;;14.10;99.90;;;;;;5046589;27;20447;-82
2021/05/03 08:31:52;;;;;;;1.53;1.43;;;14.10;99.90;;;;;;5034342;27;20518;-82
2021/05/03 08:34:18;;;;;;;2.60;1.70;;;14.10;99.90;;;;;;5035058;27;20626;-82
2021/05/03 08:36:44;;;;;;;4.33;1.90;;;14.20;99.90;;;;;;5067979;27;20481;-82
2021/05/03 08:39:10;;;;;;;4.13;1.50;;;14.10;99.90;;;;;;5072345;27;20445;-82
2021/05/03 08:41:38;;;;;;;1.77;1.60;;;14.20;99.90;;;;;;5108583;27;20445;-82
2021/05/03 08:44:05;;;;;;;1.77;1.67;;;14.30;99.90;;;;;;5085231;27;20800;-81
2021/05/03 08:46:33;;;;;;;1.47;1.33;;;14.30;99.90;;;;;;5100678;27;20521;-82
2021/05/03 08:49:03;;;;;;;2.43;1.30;;;14.40;99.90;;;;;;5099225;27;20442;-82
2021/05/03 08:51:36;;;;;;;3.37;1.40;;;14.30;99.90;;;;;;5058046;27;20441;-81
2021/05/03 08:54:09;;;;;;;1.80;1.60;;;14.20;99.90;;;;;;5056991;27;20871;-79
2021/05/03 08:56:35;;;;;;;1.30;1.20;;;14.00;99.90;;;;;;5061406;27;20457;-81
2021/05/03 08:59:09;;;;;;;2.67;1.57;;;13.80;99.90;;;;;;5069652;27;20483;-81
2021/05/03 09:01:36;;;;;;;2.40;1.67;;;13.60;99.90;;;;;;5061247;27;20452;-79
2021/05/03 09:04:02;;;;;;;2.23;1.50;;;13.30;99.90;;;;;;5065722;27;20489;-79
2021/05/03 09:06:30;;;;;;;1.70;1.30;;;13.20;99.90;;;;;;5056786;27;20496;-80
2021/05/03 09:09:06;;;;;;;2.83;1.30;;;13.10;99.90;;;;;;5096483;27;20476;-79
2021/05/03 09:11:37;;;;;;;2.37;1.73;;;13.20;99.90;;;;;;5098011;27;20536;-79
2021/05/03 09:14:09;;;;;;;3.57;1.87;;;13.40;99.90;;;;;;5056917;27;20519;-79
2021/05/03 09:16:43;;;;;;;1.80;1.40;;;13.60;99.90;;;;;;5053780;27;20462;-80
2021/05/03 09:19:15;;;;;;;1.90;1.00;;;13.50;99.90;;;;;;5051687;27;20535;-79
2021/05/03 09:25:24;;;;;;;2.43;1.30;;;13.40;99.90;;;;;;5060329;27;20494;-79
2021/05/03 09:28:02;;;;;;;1.37;1.27;;;13.20;99.90;;;;;;5056692;27;20495;-79
2021/05/03 09:30:39;;;;;;;1.30;1.20;;;13.20;99.90;;;;;;5046697;27;20506;-79
2021/05/03 09:33:18;;;;;;;1.23;1.13;;;13.10;99.90;;;;;;5047098;27;21075;-79
2021/05/03 09:35:46;;;;;;;1.60;1.50;;;13.00;99.90;;;;;;5047037;27;20655;-79
2021/05/03 09:38:33;;;;;;;2.10;1.17;;;12.80;99.90;;;;;;5065312;27;20445;-79
2021/05/03 09:41:09;;;;;;;1.50;1.20;;;12.60;99.90;;;;;;5046195;27;20448;-79
2021/05/03 09:43:36;;;;;;;1.40;1.27;;;12.50;99.90;;;;;;5045898;27;20456;-79
2021/05/03 09:46:22;;;;;;;1.47;1.37;;;12.50;99.90;;;;;;5097581;27;20447;-79
2021/05/03 09:48:49;;;;;;;1.97;1.17;;;12.50;99.90;;;;;;5105801;27;20449;-79
2021/05/03 09:51:38;;;;;;;1.17;1.07;;;12.80;99.90;;;;;;5109744;27;20464;-79
2021/05/03 09:54:07;;;;;;;2.00;1.17;;;13.20;99.90;;;;;;5094698;27;20473;-79
2021/05/03 09:56:54;;;;;;;1.70;1.20;;;13.70;99.90;;;;;;5040509;27;20541;-79
2021/05/03 09:59:31;;;;;;;1.93;1.20;;;14.10;99.90;;;;;;5033606;27;20451;-79
2021/05/03 10:02:09;;;;;;;1.20;1.03;;;14.20;99.90;;;;;;5033295;28;20475;-79
2021/05/03 10:04:37;;;;;;;2.50;1.10;;;14.30;99.90;;;;;;5036570;27;20449;-79
2021/05/03 10:07:05;;;;;;;2.57;1.20;;;14.50;99.90;;;;;;5032177;28;20544;-79
2021/05/03 10:09:33;;;;;;;2.40;1.20;;;14.50;99.90;;;;;;5031303;27;20460;-80
2021/05/03 10:11:59;;;;;;;1.30;1.20;;;14.40;99.90;;;;;;5031660;27;20461;-80
2021/05/03 10:14:29;;;;;;;1.40;1.20;;;14.30;99.90;;;;;;5033463;27;21006;-79
2021/05/03 10:16:56;;;;;;;1.43;1.27;;;14.20;99.90;;;;;;5017626;28;20502;-79
2021/05/03 10:19:24;;;;;;;1.27;1.17;;;14.20;99.90;;;;;;5067025;28;20540;-79
2021/05/03 10:21:51;;;;;;;1.87;1.00;;;14.40;99.90;;;;;;5075053;27;20453;-79
2021/05/03 10:24:21;;;;;;;1.67;1.13;;;14.60;99.90;;;;;;5044554;27;20469;-79
2021/05/03 10:26:51;;;;;;;1.67;1.00;;;14.70;99.90;;;;;;5092564;27;21081;-80
2021/05/03 10:29:40;;;;;;;1.40;1.20;;;14.70;99.90;;;;;;5069132;28;20453;-80
2021/05/03 10:32:08;;;;;;;1.67;1.17;;;14.70;99.90;;;;;;5051288;28;20477;-79
2021/05/03 10:35:07;;;;;;;2.00;1.33;;;14.60;99.90;;;;;;5114746;28;20819;-80
2021/05/03 10:37:45;;;;;;;1.20;1.10;;;14.10;99.90;;;;;;5086844;28;20723;-78
2021/05/03 10:40:49;;;;;;;2.67;1.20;;;13.80;99.90;;;;;;5057910;28;20526;-78
2021/05/03 10:43:21;;;;;;;3.00;0.90;;;13.70;99.90;;;;;;5048124;28;20467;-77
2021/05/03 10:49:29;;;;;;;2.10;1.00;;;14.20;99.90;;;;;;5101544;27;20446;-78
2021/05/03 10:52:00;;;;;;;5.20;1.37;;;14.40;99.90;;;;;;5072720;27;20684;-78
2021/05/03 10:54:51;;;;;;;0.93;0.80;;;14.40;99.90;;;;;;5117323;27;20476;-78
2021/05/03 10:57:57;;;;;;;1.50;1.07;;;14.20;99.90;;;;;;5054023;27;20436;-79
2021/05/03 11:00:31;;;;;;;1.87;1.10;;;14.00;99.90;;;;;;5032632;27;20485;-79
2021/05/03 11:02:57;;;;;;;1.43;0.93;;;14.00;99.90;;;;;;5035687;27;20869;-79
2021/05/03 11:05:26;;;;;;;2.40;1.20;;;14.20;99.90;;;;;;5096735;27;20477;-78
2021/05/03 11:08:29;;;;;;;3.77;1.33;;;14.20;99.90;;;;;;5091788;27;20952;-79
2021/05/03 11:11:13;;;;;;;3.00;1.13;;;14.30;99.90;;;;;;5035265;27;20440;-78
2021/05/03 11:13:49;;;;;;;2.27;1.10;;;14.40;99.90;;;;;;5086063;27;20820;-78
2021/05/03 11:16:54;;;;;;;1.37;1.20;;;14.40;99.90;;;;;;5109098;27;20441;-78
2021/05/03 11:22:26;;;;;;;1.33;1.23;;;14.00;99.90;;;;;;5129129;27;20524;-78
2021/05/03 11:24:58;;;;;;;1.77;1.43;;;13.90;99.90;;;;;;5049924;27;20457;-81
2021/05/03 11:27:39;;;;;;;1.53;1.20;;;13.90;99.90;;;;;;5100438;27;20472;-79
2021/05/03 11:30:08;;;;;;;1.20;1.10;;;14.10;99.90;;;;;;5067393;27;20473;-78
2021/05/03 11:32:38;;;;;;;1.30;1.13;;;14.30;99.90;;;;;;5116791;27;20441;-79
2021/05/03 11:35:21;;;;;;;1.30;1.13;;;14.30;99.70;;;;;;5056389;27;20613;-78
2021/05/03 11:37:54;;;;;;;1.40;1.30;;;14.50;99.30;;;;;;5079860;27;20440;-78
2021/05/03 11:40:42;;;;;;;1.90;1.30;;;14.80;99.70;;;;;;5068652;27;20447;-79
2021/05/03 11:43:47;;;;;;;1.50;0.97;;;14.90;99.20;;;;;;5041273;27;20465;-79
2021/05/03 11:46:24;;;;;;;1.13;1.03;;;14.90;98.40;;;;;;5042470;27;20448;-79
2021/05/03 11:48:51;;;;;;;1.10;1.00;;;15.10;99.90;;;;;;5053293;27;20444;-79
2021/05/03 11:51:23;;;;;;;1.37;1.27;;;15.20;98.40;;;;;;5042269;27;20465;-79
2021/05/03 11:53:50;;;;;;;2.40;1.17;;;15.30;98.30;;;;;;5042549;27;20513;-79
2021/05/03 11:56:17;;;;;;;1.47;1.37;;;15.20;98.40;;;;;;5041099;27;20825;-78
2021/05/03 11:58:45;;;;;;;1.20;1.10;;;15.00;97.50;;;;;;5052802;27;20528;-79
2021/05/03 12:01:15;;;;;;;1.17;1.07;;;14.70;97.80;;;;;;5038674;27;20503;-79
2021/05/03 12:03:44;;;;;;;1.60;0.90;;;14.70;97.70;;;;;;5041321;27;20971;-79
2021/05/03 12:06:28;;;;;;;4.43;1.50;;;14.70;97.50;;;;;;5039674;27;20488;-80
2021/05/03 12:08:58;;;;;;;1.97;1.13;;;14.80;97.50;;;;;;5038904;27;20466;-79
2021/05/03 12:11:27;;;;;;;1.10;1.00;;;14.90;97.60;;;;;;5041500;27;20494;-79
2021/05/03 12:13:57;;;;;;;2.30;1.20;;;15.10;97.60;;;;;;5040048;27;20504;-79
2021/05/03 12:17:03;;;;;;;1.10;1.00;;;15.20;97.90;;;;;;5042242;27;20546;-79
2021/05/03 12:19:37;;;;;;;1.67;1.23;;;15.20;97.70;;;;;;5063649;27;20440;-79
2021/05/03 12:22:03;;;;;;;1.10;1.00;;;15.20;97.30;;;;;;5067463;27;20449;-79
2021/05/03 12:24:34;;;;;;;3.50;1.20;;;15.20;97.00;;;;;;5116703;27;20484;-79
2021/05/03 12:27:01;;;;;;;1.57;1.40;;;15.20;97.20;;;;;;5053768;27;20827;-79
2021/05/03 12:29:29;;;;;;;1.30;1.00;;;15.20;96.80;;;;;;5094034;27;20500;-79
2021/05/03 12:31:56;;;;;;;1.30;1.20;;;15.40;97.40;;;;;;5093413;27;20514;-79
2021/05/03 12:34:25;;;;;;;10.93;1.40;;;15.60;96.40;;;;;;5053931;27;20556;-79
2021/05/03 12:37:05;;;;;;;1.87;1.33;;;15.60;95.50;;;;;;5117286;27;20505;-79
2021/05/03 12:39:31;;;;;;;1.73;1.10;;;15.70;96.30;;;;;;5075197;27;20455;-77
2021/05/03 12:42:10;;;;;;;0.97;0.87;;;15.60;95.70;;;;;;5073218;27;20529;-77
2021/05/03 12:44:41;;;;;;;3.20;1.23;;;15.60;95.90;;;;;;5045674;27;20460;-77
2021/05/03 12:47:26;;;;;;;1.23;1.13;;;15.50;95.00;;;;;;5047658;27;21208;-75
2021/05/03 12:50:00;;;;;;;1.33;1.13;;;15.60;95.40;;;;;;5044112;27;20457;-77
2021/05/03 12:52:31;;;;;;;1.87;1.10;;;15.70;95.20;;;;;;5044221;27;20782;-76
2021/05/03 12:55:03;;;;;;;2.03;1.20;;;15.80;95.00;;;;;;5108972;27;20515;-75
2021/05/03 12:57:55;;;;;;;1.20;1.00;;;15.90;94.50;;;;;;5045161;27;20953;-75
2021/05/03 13:00:25;;;;;;;2.13;1.17;;;15.80;93.90;;;;;;5043360;27;20453;-80
2021/05/03 13:03:10;;;;;;;1.23;1.00;;;15.80;94.00;;;;;;5055863;27;20479;-77
2021/05/03 13:05:40;;;;;;;1.83;1.30;;;15.60;94.30;;;;;;5042433;27;20449;-77
2021/05/03 13:08:17;;;;;;;3.37;1.40;;;15.50;95.00;;;;;;5066330;27;20453;-77
2021/05/03 13:30:16;;;;;;;1.60;1.50;;;14.00;98.70;;;;;;5066826;27;20444;-77
2021/05/03 13:32:43;;;;;;;1.90;1.80;;;13.70;99.90;;;;;;5115949;27;20439;-76
2021/05/03 13:35:13;;;;;;;1.73;1.37;;;13.50;99.90;;;;;;5058437;27;20572;-76
2021/05/03 13:37:45;;;;;;;2.57;2.37;;;13.30;99.90;;;;;;5075685;27;20479;-77
2021/05/03 13:40:12;;;;;;;1.67;1.57;;;13.30;99.90;;;;;;5103642;27;20809;-77
2021/05/03 13:42:42;;;;;;;2.23;1.67;;;13.30;99.90;;;;;;5051738;27;20867;-77